sensor_id;sensor_type;location;lat;lon;timestamp;P1;durP1;ratioP1;P2;durP2;ratioP2
73100;SDS011;61288;53.446;-2.266;2022-10-22T00:01:45;3.15;;;1.05;;
73100;SDS011;61288;53.446;-2.266;2022-10-22T00:04:12;3.03;;;1.25;;
73100;SDS011;61288;53.446;-2.266;2022-10-22T00:06:37;4.72;;;1.27;;
73100;SDS011;61288;53.446;-2.266;2022-10-22T00:09:03;2.65;;;1.20;;
73100;SDS011;61288;53.446;-2.266;2022-10-22T00:11:28;4.13;;;1.25;;
73100;SDS011;61288;53.446;-2.266;2022-10-22T00:13:54;3.30;;;1.20;;
73100;SDS011;61288;53.446;-2.266;2022-10-22T00:16:19;5.50;;;1.30;;
73100;SDS011;61288;53.446;-2.266;2022-10-22T00:18:45;5.78;;;1.25;;
73100;SDS011;61288;53.446;-2.266;2022-10-22T00:21:11;4.78;;;1.10;;
73100;SDS011;61288;53.446;-2.266;2022-10-22T00:23:38;4.15;;;1.20;;
73100;SDS011;61288;53.446;-2.266;2022-10-22T00:26:06;6.55;;;1.30;;
73100;SDS011;61288;53.446;-2.266;2022-10-22T00:28:32;3.58;;;1.13;;
73100;SDS011;61288;53.446;-2.266;2022-10-22T00:30:58;4.90;;;1.20;;
73100;SDS011;61288;53.446;-2.266;2022-10-22T00:33:25;4.13;;;1.23;;
73100;SDS011;61288;53.446;-2.266;2022-10-22T00:35:51;4.45;;;1.13;;
73100;SDS011;61288;53.446;-2.266;2022-10-22T00:38:17;4.43;;;0.93;;
73100;SDS011;61288;53.446;-2.266;2022-10-22T00:40:42;3.45;;;0.93;;
73100;SDS011;61288;53.446;-2.266;2022-10-22T00:43:12;5.80;;;1.00;;
73100;SDS011;61288;53.446;-2.266;2022-10-22T00:45:39;2.70;;;0.95;;
73100;SDS011;61288;53.446;-2.266;2022-10-22T00:48:15;7.93;;;1.13;;
73100;SDS011;61288;53.446;-2.266;2022-10-22T00:50:58;3.58;;;1.15;;
73100;SDS011;61288;53.446;-2.266;2022-10-22T00:53:41;3.20;;;1.05;;
73100;SDS011;61288;53.446;-2.266;2022-10-22T00:56:11;3.00;;;1.00;;
73100;SDS011;61288;53.446;-2.266;2022-10-22T00:58:39;5.82;;;1.10;;
73100;SDS011;61288;53.446;-2.266;2022-10-22T01:01:08;3.55;;;0.95;;
73100;SDS011;61288;53.446;-2.266;2022-10-22T01:03:39;6.63;;;1.13;;
73100;SDS011;61288;53.446;-2.266;2022-10-22T01:06:05;5.00;;;0.90;;
73100;SDS011;61288;53.446;-2.266;2022-10-22T01:08:42;7.63;;;1.38;;
73100;SDS011;61288;53.446;-2.266;2022-10-22T01:11:18;5.82;;;1.13;;
73100;SDS011;61288;53.446;-2.266;2022-10-22T01:16:43;4.47;;;1.10;;
73100;SDS011;61288;53.446;-2.266;2022-10-22T01:22:33;5.43;;;0.90;;
73100;SDS011;61288;53.446;-2.266;2022-10-22T01:26:03;5.20;;;1.00;;
73100;SDS011;61288;53.446;-2.266;2022-10-22T01:31:13;6.95;;;1.17;;
73100;SDS011;61288;53.446;-2.266;2022-10-22T01:33:41;4.90;;;1.20;;
73100;SDS011;61288;53.446;-2.266;2022-10-22T01:36:10;8.88;;;1.50;;
73100;SDS011;61288;53.446;-2.266;2022-10-22T01:38:36;6.75;;;1.10;;
73100;SDS011;61288;53.446;-2.266;2022-10-22T01:41:04;7.72;;;1.13;;
73100;SDS011;61288;53.446;-2.266;2022-10-22T01:43:30;7.40;;;1.60;;
73100;SDS011;61288;53.446;-2.266;2022-10-22T01:45:57;7.85;;;1.20;;
73100;SDS011;61288;53.446;-2.266;2022-10-22T01:51:24;6.47;;;1.15;;
73100;SDS011;61288;53.446;-2.266;2022-10-22T02:00:16;4.20;;;1.10;;
73100;SDS011;61288;53.446;-2.266;2022-10-22T02:08:02;5.13;;;0.80;;
73100;SDS011;61288;53.446;-2.266;2022-10-22T02:10:33;3.38;;;0.90;;
73100;SDS011;61288;53.446;-2.266;2022-10-22T02:13:02;4.03;;;1.13;;
73100;SDS011;61288;53.446;-2.266;2022-10-22T02:15:32;2.60;;;0.90;;
73100;SDS011;61288;53.446;-2.266;2022-10-22T02:18:04;2.42;;;0.85;;
73100;SDS011;61288;53.446;-2.266;2022-10-22T02:20:33;4.03;;;1.08;;
73100;SDS011;61288;53.446;-2.266;2022-10-22T02:23:00;6.28;;;1.10;;
73100;SDS011;61288;53.446;-2.266;2022-10-22T02:25:28;10.07;;;1.15;;
73100;SDS011;61288;53.446;-2.266;2022-10-22T02:30:51;5.57;;;0.90;;
73100;SDS011;61288;53.446;-2.266;2022-10-22T02:35:52;4.90;;;1.10;;
73100;SDS011;61288;53.446;-2.266;2022-10-22T02:38:19;4.80;;;0.98;;
73100;SDS011;61288;53.446;-2.266;2022-10-22T02:40:48;4.47;;;1.00;;
73100;SDS011;61288;53.446;-2.266;2022-10-22T02:43:14;6.18;;;1.50;;
73100;SDS011;61288;53.446;-2.266;2022-10-22T02:45:41;5.13;;;1.20;;
73100;SDS011;61288;53.446;-2.266;2022-10-22T02:48:07;6.13;;;1.40;;
73100;SDS011;61288;53.446;-2.266;2022-10-22T02:50:32;4.07;;;1.05;;
73100;SDS011;61288;53.446;-2.266;2022-10-22T02:52:58;6.53;;;1.00;;
73100;SDS011;61288;53.446;-2.266;2022-10-22T02:55:23;8.27;;;1.30;;
73100;SDS011;61288;53.446;-2.266;2022-10-22T02:57:49;4.00;;;1.10;;
73100;SDS011;61288;53.446;-2.266;2022-10-22T03:00:15;5.45;;;1.02;;
73100;SDS011;61288;53.446;-2.266;2022-10-22T03:02:40;8.30;;;1.13;;
73100;SDS011;61288;53.446;-2.266;2022-10-22T03:05:06;2.50;;;0.95;;
73100;SDS011;61288;53.446;-2.266;2022-10-22T03:07:32;5.32;;;1.10;;
73100;SDS011;61288;53.446;-2.266;2022-10-22T03:09:58;5.68;;;1.08;;
73100;SDS011;61288;53.446;-2.266;2022-10-22T03:12:24;5.25;;;1.00;;
73100;SDS011;61288;53.446;-2.266;2022-10-22T03:14:49;4.90;;;1.02;;
73100;SDS011;61288;53.446;-2.266;2022-10-22T03:17:15;5.88;;;0.90;;
73100;SDS011;61288;53.446;-2.266;2022-10-22T03:19:40;6.07;;;1.15;;
73100;SDS011;61288;53.446;-2.266;2022-10-22T03:22:08;5.40;;;0.90;;
73100;SDS011;61288;53.446;-2.266;2022-10-22T03:24:39;5.93;;;1.20;;
73100;SDS011;61288;53.446;-2.266;2022-10-22T03:27:08;5.80;;;1.10;;
73100;SDS011;61288;53.446;-2.266;2022-10-22T03:29:36;3.17;;;0.93;;
73100;SDS011;61288;53.446;-2.266;2022-10-22T03:32:04;3.80;;;0.93;;
73100;SDS011;61288;53.446;-2.266;2022-10-22T03:34:30;5.88;;;1.73;;
73100;SDS011;61288;53.446;-2.266;2022-10-22T03:36:56;2.75;;;0.70;;
73100;SDS011;61288;53.446;-2.266;2022-10-22T03:39:24;5.25;;;1.10;;
73100;SDS011;61288;53.446;-2.266;2022-10-22T03:41:51;2.95;;;0.65;;
73100;SDS011;61288;53.446;-2.266;2022-10-22T03:44:18;4.32;;;0.93;;
73100;SDS011;61288;53.446;-2.266;2022-10-22T03:46:44;4.75;;;0.80;;
73100;SDS011;61288;53.446;-2.266;2022-10-22T03:49:10;6.38;;;1.10;;
73100;SDS011;61288;53.446;-2.266;2022-10-22T03:51:35;5.15;;;1.08;;
73100;SDS011;61288;53.446;-2.266;2022-10-22T03:54:03;4.78;;;1.00;;
73100;SDS011;61288;53.446;-2.266;2022-10-22T03:56:29;7.18;;;0.90;;
73100;SDS011;61288;53.446;-2.266;2022-10-22T03:58:55;8.35;;;1.00;;
73100;SDS011;61288;53.446;-2.266;2022-10-22T04:01:22;5.15;;;0.85;;
73100;SDS011;61288;53.446;-2.266;2022-10-22T04:03:48;6.57;;;0.82;;
73100;SDS011;61288;53.446;-2.266;2022-10-22T04:06:14;2.75;;;1.00;;
73100;SDS011;61288;53.446;-2.266;2022-10-22T04:08:40;4.15;;;1.00;;
73100;SDS011;61288;53.446;-2.266;2022-10-22T04:11:08;5.22;;;0.70;;
73100;SDS011;61288;53.446;-2.266;2022-10-22T04:13:35;5.85;;;0.95;;
73100;SDS011;61288;53.446;-2.266;2022-10-22T04:16:07;3.67;;;0.95;;
73100;SDS011;61288;53.446;-2.266;2022-10-22T04:18:37;3.05;;;0.80;;
73100;SDS011;61288;53.446;-2.266;2022-10-22T04:21:04;8.73;;;1.67;;
73100;SDS011;61288;53.446;-2.266;2022-10-22T04:23:31;4.22;;;0.90;;
73100;SDS011;61288;53.446;-2.266;2022-10-22T04:25:57;4.47;;;0.90;;
73100;SDS011;61288;53.446;-2.266;2022-10-22T04:28:23;4.15;;;1.00;;
73100;SDS011;61288;53.446;-2.266;2022-10-22T04:36:31;3.88;;;1.02;;
73100;SDS011;61288;53.446;-2.266;2022-10-22T04:38:58;3.45;;;0.90;;
73100;SDS011;61288;53.446;-2.266;2022-10-22T04:41:26;6.22;;;1.00;;
73100;SDS011;61288;53.446;-2.266;2022-10-22T04:44:10;3.88;;;0.90;;
73100;SDS011;61288;53.446;-2.266;2022-10-22T04:46:36;5.85;;;0.90;;
73100;SDS011;61288;53.446;-2.266;2022-10-22T04:49:01;5.90;;;0.90;;
73100;SDS011;61288;53.446;-2.266;2022-10-22T04:51:30;5.32;;;1.05;;
73100;SDS011;61288;53.446;-2.266;2022-10-22T04:53:56;6.53;;;1.48;;
73100;SDS011;61288;53.446;-2.266;2022-10-22T04:56:23;7.25;;;1.20;;
73100;SDS011;61288;53.446;-2.266;2022-10-22T04:58:56;6.78;;;1.30;;
73100;SDS011;61288;53.446;-2.266;2022-10-22T05:01:24;6.15;;;1.40;;
73100;SDS011;61288;53.446;-2.266;2022-10-22T05:03:52;5.18;;;1.08;;
73100;SDS011;61288;53.446;-2.266;2022-10-22T05:06:19;7.65;;;1.33;;
73100;SDS011;61288;53.446;-2.266;2022-10-22T05:08:47;7.18;;;1.52;;
73100;SDS011;61288;53.446;-2.266;2022-10-22T05:11:16;6.47;;;1.30;;
73100;SDS011;61288;53.446;-2.266;2022-10-22T05:13:44;5.25;;;1.13;;
73100;SDS011;61288;53.446;-2.266;2022-10-22T05:16:10;5.32;;;1.10;;
73100;SDS011;61288;53.446;-2.266;2022-10-22T05:18:37;4.43;;;1.08;;
73100;SDS011;61288;53.446;-2.266;2022-10-22T05:21:06;6.90;;;1.10;;
73100;SDS011;61288;53.446;-2.266;2022-10-22T05:23:37;6.00;;;1.10;;
73100;SDS011;61288;53.446;-2.266;2022-10-22T05:26:03;6.60;;;1.15;;
73100;SDS011;61288;53.446;-2.266;2022-10-22T05:28:30;5.07;;;0.90;;
73100;SDS011;61288;53.446;-2.266;2022-10-22T05:30:57;5.82;;;1.00;;
73100;SDS011;61288;53.446;-2.266;2022-10-22T05:33:24;7.80;;;1.05;;
73100;SDS011;61288;53.446;-2.266;2022-10-22T05:35:51;8.63;;;1.20;;
73100;SDS011;61288;53.446;-2.266;2022-10-22T05:38:17;7.40;;;1.20;;
73100;SDS011;61288;53.446;-2.266;2022-10-22T05:40:43;8.25;;;1.13;;
73100;SDS011;61288;53.446;-2.266;2022-10-22T05:43:10;10.50;;;1.50;;
73100;SDS011;61288;53.446;-2.266;2022-10-22T05:45:39;9.35;;;1.17;;
73100;SDS011;61288;53.446;-2.266;2022-10-22T05:48:06;12.05;;;1.63;;
73100;SDS011;61288;53.446;-2.266;2022-10-22T05:50:36;8.55;;;1.40;;
73100;SDS011;61288;53.446;-2.266;2022-10-22T05:53:04;10.48;;;1.63;;
73100;SDS011;61288;53.446;-2.266;2022-10-22T05:55:33;9.40;;;1.70;;
73100;SDS011;61288;53.446;-2.266;2022-10-22T05:58:05;13.73;;;2.28;;
73100;SDS011;61288;53.446;-2.266;2022-10-22T06:00:31;10.93;;;1.40;;
73100;SDS011;61288;53.446;-2.266;2022-10-22T06:02:58;7.28;;;1.40;;
73100;SDS011;61288;53.446;-2.266;2022-10-22T06:05:23;9.30;;;1.40;;
73100;SDS011;61288;53.446;-2.266;2022-10-22T06:07:49;9.73;;;1.48;;
73100;SDS011;61288;53.446;-2.266;2022-10-22T06:10:16;8.35;;;2.17;;
73100;SDS011;61288;53.446;-2.266;2022-10-22T06:12:45;13.57;;;1.60;;
73100;SDS011;61288;53.446;-2.266;2022-10-22T06:15:11;7.72;;;1.35;;
73100;SDS011;61288;53.446;-2.266;2022-10-22T06:17:37;12.18;;;1.48;;
73100;SDS011;61288;53.446;-2.266;2022-10-22T06:20:03;10.38;;;1.50;;
73100;SDS011;61288;53.446;-2.266;2022-10-22T06:22:30;11.32;;;1.42;;
73100;SDS011;61288;53.446;-2.266;2022-10-22T06:24:55;5.80;;;1.25;;
73100;SDS011;61288;53.446;-2.266;2022-10-22T06:27:21;11.55;;;1.38;;
73100;SDS011;61288;53.446;-2.266;2022-10-22T06:29:47;11.43;;;1.30;;
73100;SDS011;61288;53.446;-2.266;2022-10-22T06:32:12;10.60;;;1.48;;
73100;SDS011;61288;53.446;-2.266;2022-10-22T06:34:38;8.85;;;1.30;;
73100;SDS011;61288;53.446;-2.266;2022-10-22T06:37:04;8.43;;;1.60;;
73100;SDS011;61288;53.446;-2.266;2022-10-22T06:39:29;10.55;;;1.40;;
73100;SDS011;61288;53.446;-2.266;2022-10-22T06:41:55;11.57;;;1.30;;
73100;SDS011;61288;53.446;-2.266;2022-10-22T06:44:21;12.75;;;1.90;;
73100;SDS011;61288;53.446;-2.266;2022-10-22T06:46:50;6.07;;;1.13;;
73100;SDS011;61288;53.446;-2.266;2022-10-22T06:49:16;9.75;;;1.80;;
73100;SDS011;61288;53.446;-2.266;2022-10-22T06:51:43;8.98;;;1.70;;
73100;SDS011;61288;53.446;-2.266;2022-10-22T06:54:09;7.85;;;1.40;;
73100;SDS011;61288;53.446;-2.266;2022-10-22T06:56:36;7.68;;;1.30;;
73100;SDS011;61288;53.446;-2.266;2022-10-22T06:59:01;12.20;;;1.63;;
73100;SDS011;61288;53.446;-2.266;2022-10-22T07:01:30;9.77;;;1.50;;
73100;SDS011;61288;53.446;-2.266;2022-10-22T07:03:58;12.10;;;1.67;;
73100;SDS011;61288;53.446;-2.266;2022-10-22T07:06:24;10.65;;;2.28;;
73100;SDS011;61288;53.446;-2.266;2022-10-22T07:08:52;11.20;;;1.92;;
73100;SDS011;61288;53.446;-2.266;2022-10-22T07:11:25;9.07;;;1.63;;
73100;SDS011;61288;53.446;-2.266;2022-10-22T07:13:54;9.02;;;1.70;;
73100;SDS011;61288;53.446;-2.266;2022-10-22T07:16:22;10.57;;;1.63;;
73100;SDS011;61288;53.446;-2.266;2022-10-22T07:18:48;6.80;;;1.20;;
73100;SDS011;61288;53.446;-2.266;2022-10-22T07:21:14;10.88;;;1.48;;
73100;SDS011;61288;53.446;-2.266;2022-10-22T07:23:42;13.05;;;3.17;;
73100;SDS011;61288;53.446;-2.266;2022-10-22T07:26:10;9.23;;;1.63;;
73100;SDS011;61288;53.446;-2.266;2022-10-22T07:28:37;9.63;;;1.85;;
73100;SDS011;61288;53.446;-2.266;2022-10-22T07:31:05;13.90;;;2.25;;
73100;SDS011;61288;53.446;-2.266;2022-10-22T07:33:35;11.13;;;1.52;;
73100;SDS011;61288;53.446;-2.266;2022-10-22T07:36:02;8.55;;;1.70;;
73100;SDS011;61288;53.446;-2.266;2022-10-22T07:38:30;10.85;;;1.65;;
73100;SDS011;61288;53.446;-2.266;2022-10-22T07:40:56;9.35;;;1.55;;
73100;SDS011;61288;53.446;-2.266;2022-10-22T07:43:22;9.50;;;1.50;;
73100;SDS011;61288;53.446;-2.266;2022-10-22T07:45:48;9.10;;;1.50;;
73100;SDS011;61288;53.446;-2.266;2022-10-22T07:48:14;13.02;;;1.95;;
73100;SDS011;61288;53.446;-2.266;2022-10-22T07:50:40;16.70;;;2.10;;
73100;SDS011;61288;53.446;-2.266;2022-10-22T07:53:07;14.65;;;1.77;;
73100;SDS011;61288;53.446;-2.266;2022-10-22T07:55:33;10.10;;;1.77;;
73100;SDS011;61288;53.446;-2.266;2022-10-22T07:57:59;12.18;;;1.67;;
73100;SDS011;61288;53.446;-2.266;2022-10-22T08:00:25;10.20;;;1.80;;
73100;SDS011;61288;53.446;-2.266;2022-10-22T08:02:50;13.18;;;1.98;;
73100;SDS011;61288;53.446;-2.266;2022-10-22T08:05:16;10.00;;;1.70;;
73100;SDS011;61288;53.446;-2.266;2022-10-22T08:07:42;10.50;;;1.58;;
73100;SDS011;61288;53.446;-2.266;2022-10-22T08:10:08;13.88;;;1.90;;
73100;SDS011;61288;53.446;-2.266;2022-10-22T08:12:35;10.82;;;1.67;;
73100;SDS011;61288;53.446;-2.266;2022-10-22T08:15:01;15.20;;;2.28;;
73100;SDS011;61288;53.446;-2.266;2022-10-22T08:17:27;13.85;;;2.10;;
73100;SDS011;61288;53.446;-2.266;2022-10-22T08:19:53;8.15;;;1.55;;
73100;SDS011;61288;53.446;-2.266;2022-10-22T08:22:18;13.18;;;2.05;;
73100;SDS011;61288;53.446;-2.266;2022-10-22T08:24:44;11.73;;;1.70;;
73100;SDS011;61288;53.446;-2.266;2022-10-22T08:27:10;13.30;;;1.58;;
73100;SDS011;61288;53.446;-2.266;2022-10-22T08:29:36;9.32;;;1.80;;
73100;SDS011;61288;53.446;-2.266;2022-10-22T08:32:04;10.85;;;2.05;;
73100;SDS011;61288;53.446;-2.266;2022-10-22T08:34:29;8.63;;;1.80;;
73100;SDS011;61288;53.446;-2.266;2022-10-22T08:36:55;14.88;;;2.03;;
73100;SDS011;61288;53.446;-2.266;2022-10-22T08:39:21;11.80;;;1.52;;
73100;SDS011;61288;53.446;-2.266;2022-10-22T08:41:51;9.23;;;1.42;;
73100;SDS011;61288;53.446;-2.266;2022-10-22T08:50:11;12.85;;;1.95;;
73100;SDS011;61288;53.446;-2.266;2022-10-22T08:52:42;16.60;;;2.15;;
73100;SDS011;61288;53.446;-2.266;2022-10-22T08:55:14;11.75;;;1.70;;
73100;SDS011;61288;53.446;-2.266;2022-10-22T09:00:18;10.13;;;2.00;;
73100;SDS011;61288;53.446;-2.266;2022-10-22T09:08:38;11.82;;;2.00;;
73100;SDS011;61288;53.446;-2.266;2022-10-22T09:13:39;11.25;;;2.00;;
73100;SDS011;61288;53.446;-2.266;2022-10-22T09:16:52;12.98;;;2.00;;
73100;SDS011;61288;53.446;-2.266;2022-10-22T09:21:49;11.57;;;2.05;;
73100;SDS011;61288;53.446;-2.266;2022-10-22T09:24:51;13.05;;;1.67;;
73100;SDS011;61288;53.446;-2.266;2022-10-22T09:27:11;16.45;;;1.88;;
73100;SDS011;61288;53.446;-2.266;2022-10-22T09:29:39;10.73;;;1.65;;
73100;SDS011;61288;53.446;-2.266;2022-10-22T09:32:05;12.48;;;2.05;;
73100;SDS011;61288;53.446;-2.266;2022-10-22T09:34:30;12.85;;;1.85;;
73100;SDS011;61288;53.446;-2.266;2022-10-22T09:37:01;12.05;;;1.75;;
73100;SDS011;61288;53.446;-2.266;2022-10-22T09:39:33;10.82;;;2.03;;
73100;SDS011;61288;53.446;-2.266;2022-10-22T09:42:02;18.05;;;2.35;;
73100;SDS011;61288;53.446;-2.266;2022-10-22T09:44:27;12.90;;;1.55;;
73100;SDS011;61288;53.446;-2.266;2022-10-22T09:46:53;10.32;;;1.73;;
73100;SDS011;61288;53.446;-2.266;2022-10-22T09:49:20;12.55;;;2.10;;
73100;SDS011;61288;53.446;-2.266;2022-10-22T09:59:29;11.57;;;1.73;;
73100;SDS011;61288;53.446;-2.266;2022-10-22T10:01:58;10.35;;;1.70;;
73100;SDS011;61288;53.446;-2.266;2022-10-22T10:04:25;13.57;;;2.10;;
73100;SDS011;61288;53.446;-2.266;2022-10-22T10:06:52;14.82;;;2.05;;
73100;SDS011;61288;53.446;-2.266;2022-10-22T10:09:21;9.15;;;1.70;;
73100;SDS011;61288;53.446;-2.266;2022-10-22T10:11:56;10.05;;;2.03;;
73100;SDS011;61288;53.446;-2.266;2022-10-22T10:17:31;12.95;;;1.85;;
73100;SDS011;61288;53.446;-2.266;2022-10-22T10:22:57;16.05;;;2.00;;
73100;SDS011;61288;53.446;-2.266;2022-10-22T10:28:31;13.10;;;2.50;;
73100;SDS011;61288;53.446;-2.266;2022-10-22T10:42:25;8.85;;;1.80;;
73100;SDS011;61288;53.446;-2.266;2022-10-22T10:47:54;11.50;;;2.08;;
73100;SDS011;61288;53.446;-2.266;2022-10-22T10:50:41;14.07;;;1.90;;
73100;SDS011;61288;53.446;-2.266;2022-10-22T10:59:19;13.13;;;1.75;;
73100;SDS011;61288;53.446;-2.266;2022-10-22T11:01:52;14.32;;;1.85;;
73100;SDS011;61288;53.446;-2.266;2022-10-22T11:07:30;10.85;;;1.70;;
73100;SDS011;61288;53.446;-2.266;2022-10-22T11:15:43;12.13;;;1.92;;
73100;SDS011;61288;53.446;-2.266;2022-10-22T11:18:16;12.00;;;2.17;;
73100;SDS011;61288;53.446;-2.266;2022-10-22T11:20:51;12.85;;;1.80;;
73100;SDS011;61288;53.446;-2.266;2022-10-22T11:23:26;12.18;;;1.60;;
73100;SDS011;61288;53.446;-2.266;2022-10-22T11:26:04;12.10;;;1.77;;
73100;SDS011;61288;53.446;-2.266;2022-10-22T11:28:40;11.05;;;1.75;;
73100;SDS011;61288;53.446;-2.266;2022-10-22T11:31:12;11.15;;;1.65;;
73100;SDS011;61288;53.446;-2.266;2022-10-22T11:36:44;11.55;;;1.60;;
73100;SDS011;61288;53.446;-2.266;2022-10-22T11:42:22;18.65;;;2.30;;
73100;SDS011;61288;53.446;-2.266;2022-10-22T11:44:59;8.50;;;1.45;;
73100;SDS011;61288;53.446;-2.266;2022-10-22T11:50:26;9.07;;;1.67;;
73100;SDS011;61288;53.446;-2.266;2022-10-22T12:00:53;9.63;;;1.52;;
73100;SDS011;61288;53.446;-2.266;2022-10-22T12:06:28;7.20;;;1.75;;
73100;SDS011;61288;53.446;-2.266;2022-10-22T12:16:47;12.57;;;1.70;;
73100;SDS011;61288;53.446;-2.266;2022-10-22T12:19:28;10.10;;;1.70;;
73100;SDS011;61288;53.446;-2.266;2022-10-22T12:24:31;9.00;;;1.63;;
73100;SDS011;61288;53.446;-2.266;2022-10-22T12:29:26;10.32;;;1.60;;
73100;SDS011;61288;53.446;-2.266;2022-10-22T12:31:55;13.15;;;2.08;;
73100;SDS011;61288;53.446;-2.266;2022-10-22T12:34:22;9.65;;;1.67;;
73100;SDS011;61288;53.446;-2.266;2022-10-22T12:36:51;7.55;;;1.67;;
73100;SDS011;61288;53.446;-2.266;2022-10-22T12:39:21;8.07;;;1.40;;
73100;SDS011;61288;53.446;-2.266;2022-10-22T12:41:51;16.23;;;2.00;;
73100;SDS011;61288;53.446;-2.266;2022-10-22T12:44:17;7.80;;;1.77;;
73100;SDS011;61288;53.446;-2.266;2022-10-22T12:46:44;9.63;;;1.80;;
73100;SDS011;61288;53.446;-2.266;2022-10-22T12:49:16;9.07;;;1.55;;
73100;SDS011;61288;53.446;-2.266;2022-10-22T12:51:46;11.55;;;2.03;;
73100;SDS011;61288;53.446;-2.266;2022-10-22T12:54:15;9.80;;;2.22;;
73100;SDS011;61288;53.446;-2.266;2022-10-22T12:56:55;13.30;;;1.75;;
73100;SDS011;61288;53.446;-2.266;2022-10-22T12:59:26;8.80;;;1.50;;
73100;SDS011;61288;53.446;-2.266;2022-10-22T13:01:57;10.35;;;1.55;;
73100;SDS011;61288;53.446;-2.266;2022-10-22T13:04:31;10.73;;;1.40;;
73100;SDS011;61288;53.446;-2.266;2022-10-22T13:07:03;13.20;;;2.58;;
73100;SDS011;61288;53.446;-2.266;2022-10-22T13:09:40;13.98;;;1.85;;
73100;SDS011;61288;53.446;-2.266;2022-10-22T13:12:07;7.80;;;1.73;;
73100;SDS011;61288;53.446;-2.266;2022-10-22T13:14:41;8.02;;;1.33;;
73100;SDS011;61288;53.446;-2.266;2022-10-22T13:19:44;7.78;;;1.33;;
73100;SDS011;61288;53.446;-2.266;2022-10-22T13:25:02;9.20;;;1.50;;
73100;SDS011;61288;53.446;-2.266;2022-10-22T13:27:51;10.15;;;1.50;;
73100;SDS011;61288;53.446;-2.266;2022-10-22T13:32:53;17.85;;;1.75;;
73100;SDS011;61288;53.446;-2.266;2022-10-22T13:35:24;9.50;;;1.77;;
73100;SDS011;61288;53.446;-2.266;2022-10-22T13:37:52;9.75;;;1.55;;
73100;SDS011;61288;53.446;-2.266;2022-10-22T13:40:18;11.27;;;1.90;;
73100;SDS011;61288;53.446;-2.266;2022-10-22T13:42:44;10.23;;;1.52;;
73100;SDS011;61288;53.446;-2.266;2022-10-22T13:45:10;7.68;;;1.30;;
73100;SDS011;61288;53.446;-2.266;2022-10-22T13:47:38;12.32;;;2.10;;
73100;SDS011;61288;53.446;-2.266;2022-10-22T13:50:12;14.27;;;2.00;;
73100;SDS011;61288;53.446;-2.266;2022-10-22T13:52:41;7.80;;;1.40;;
73100;SDS011;61288;53.446;-2.266;2022-10-22T13:57:45;12.07;;;1.83;;
73100;SDS011;61288;53.446;-2.266;2022-10-22T14:00:18;6.82;;;1.33;;
73100;SDS011;61288;53.446;-2.266;2022-10-22T14:02:46;9.43;;;1.30;;
73100;SDS011;61288;53.446;-2.266;2022-10-22T14:05:14;8.15;;;1.50;;
73100;SDS011;61288;53.446;-2.266;2022-10-22T14:07:40;10.88;;;1.77;;
73100;SDS011;61288;53.446;-2.266;2022-10-22T14:10:16;7.10;;;1.30;;
73100;SDS011;61288;53.446;-2.266;2022-10-22T14:12:45;8.35;;;1.73;;
73100;SDS011;61288;53.446;-2.266;2022-10-22T14:15:11;8.60;;;1.75;;
73100;SDS011;61288;53.446;-2.266;2022-10-22T14:17:38;10.45;;;1.65;;
73100;SDS011;61288;53.446;-2.266;2022-10-22T14:20:09;12.15;;;1.70;;
73100;SDS011;61288;53.446;-2.266;2022-10-22T14:22:40;13.48;;;1.73;;
73100;SDS011;61288;53.446;-2.266;2022-10-22T14:25:05;10.07;;;1.65;;
73100;SDS011;61288;53.446;-2.266;2022-10-22T14:27:36;10.52;;;1.65;;
73100;SDS011;61288;53.446;-2.266;2022-10-22T14:30:02;8.38;;;1.60;;
73100;SDS011;61288;53.446;-2.266;2022-10-22T14:32:28;8.98;;;1.52;;
73100;SDS011;61288;53.446;-2.266;2022-10-22T14:34:54;9.52;;;1.58;;
73100;SDS011;61288;53.446;-2.266;2022-10-22T14:37:19;9.20;;;1.50;;
73100;SDS011;61288;53.446;-2.266;2022-10-22T14:39:46;8.70;;;1.52;;
73100;SDS011;61288;53.446;-2.266;2022-10-22T14:42:16;6.00;;;1.50;;
73100;SDS011;61288;53.446;-2.266;2022-10-22T14:44:42;5.60;;;1.33;;
73100;SDS011;61288;53.446;-2.266;2022-10-22T14:47:07;10.40;;;1.90;;
73100;SDS011;61288;53.446;-2.266;2022-10-22T14:49:33;6.55;;;1.23;;
73100;SDS011;61288;53.446;-2.266;2022-10-22T14:51:58;8.23;;;1.42;;
73100;SDS011;61288;53.446;-2.266;2022-10-22T14:54:24;6.93;;;1.45;;
73100;SDS011;61288;53.446;-2.266;2022-10-22T14:56:49;7.95;;;1.80;;
73100;SDS011;61288;53.446;-2.266;2022-10-22T14:59:15;10.38;;;1.45;;
73100;SDS011;61288;53.446;-2.266;2022-10-22T15:01:40;7.88;;;1.55;;
73100;SDS011;61288;53.446;-2.266;2022-10-22T15:04:07;7.78;;;1.60;;
73100;SDS011;61288;53.446;-2.266;2022-10-22T15:06:33;6.65;;;1.40;;
73100;SDS011;61288;53.446;-2.266;2022-10-22T15:08:59;8.90;;;1.83;;
73100;SDS011;61288;53.446;-2.266;2022-10-22T15:11:25;9.82;;;2.00;;
73100;SDS011;61288;53.446;-2.266;2022-10-22T15:13:51;8.02;;;1.88;;
73100;SDS011;61288;53.446;-2.266;2022-10-22T15:16:16;8.75;;;1.80;;
73100;SDS011;61288;53.446;-2.266;2022-10-22T15:18:42;6.50;;;1.50;;
73100;SDS011;61288;53.446;-2.266;2022-10-22T15:21:13;9.52;;;1.98;;
73100;SDS011;61288;53.446;-2.266;2022-10-22T15:23:41;11.05;;;2.03;;
73100;SDS011;61288;53.446;-2.266;2022-10-22T15:26:06;8.85;;;1.83;;
73100;SDS011;61288;53.446;-2.266;2022-10-22T15:28:32;6.80;;;1.90;;
73100;SDS011;61288;53.446;-2.266;2022-10-22T15:30:58;8.95;;;1.88;;
73100;SDS011;61288;53.446;-2.266;2022-10-22T15:33:25;12.10;;;2.33;;
73100;SDS011;61288;53.446;-2.266;2022-10-22T15:35:52;4.97;;;2.00;;
73100;SDS011;61288;53.446;-2.266;2022-10-22T15:38:18;10.30;;;1.83;;
73100;SDS011;61288;53.446;-2.266;2022-10-22T15:40:44;7.38;;;2.08;;
73100;SDS011;61288;53.446;-2.266;2022-10-22T15:43:10;9.70;;;2.20;;
73100;SDS011;61288;53.446;-2.266;2022-10-22T15:45:36;7.32;;;1.80;;
73100;SDS011;61288;53.446;-2.266;2022-10-22T15:48:02;6.93;;;1.98;;
73100;SDS011;61288;53.446;-2.266;2022-10-22T15:50:28;8.18;;;1.92;;
73100;SDS011;61288;53.446;-2.266;2022-10-22T15:52:54;8.02;;;1.67;;
73100;SDS011;61288;53.446;-2.266;2022-10-22T15:55:20;6.20;;;1.70;;
73100;SDS011;61288;53.446;-2.266;2022-10-22T15:57:46;9.10;;;1.60;;
73100;SDS011;61288;53.446;-2.266;2022-10-22T16:00:13;10.77;;;2.10;;
73100;SDS011;61288;53.446;-2.266;2022-10-22T16:02:39;9.50;;;2.08;;
73100;SDS011;61288;53.446;-2.266;2022-10-22T16:05:04;10.18;;;1.90;;
73100;SDS011;61288;53.446;-2.266;2022-10-22T16:07:30;6.28;;;1.60;;
73100;SDS011;61288;53.446;-2.266;2022-10-22T16:09:58;7.53;;;1.90;;
73100;SDS011;61288;53.446;-2.266;2022-10-22T16:12:26;7.35;;;1.60;;
73100;SDS011;61288;53.446;-2.266;2022-10-22T16:14:51;7.07;;;1.50;;
73100;SDS011;61288;53.446;-2.266;2022-10-22T16:17:17;8.13;;;1.65;;
73100;SDS011;61288;53.446;-2.266;2022-10-22T16:19:43;8.02;;;2.03;;
73100;SDS011;61288;53.446;-2.266;2022-10-22T16:22:08;8.18;;;1.80;;
73100;SDS011;61288;53.446;-2.266;2022-10-22T16:24:38;6.90;;;1.45;;
73100;SDS011;61288;53.446;-2.266;2022-10-22T16:27:07;8.77;;;2.03;;
73100;SDS011;61288;53.446;-2.266;2022-10-22T16:29:33;9.98;;;1.80;;
73100;SDS011;61288;53.446;-2.266;2022-10-22T16:32:00;7.82;;;1.60;;
73100;SDS011;61288;53.446;-2.266;2022-10-22T16:34:26;11.40;;;1.73;;
73100;SDS011;61288;53.446;-2.266;2022-10-22T16:36:52;9.73;;;1.75;;
73100;SDS011;61288;53.446;-2.266;2022-10-22T16:39:18;8.60;;;2.13;;
73100;SDS011;61288;53.446;-2.266;2022-10-22T16:41:43;10.77;;;2.05;;
73100;SDS011;61288;53.446;-2.266;2022-10-22T16:44:09;8.68;;;2.15;;
73100;SDS011;61288;53.446;-2.266;2022-10-22T16:46:35;12.18;;;2.25;;
73100;SDS011;61288;53.446;-2.266;2022-10-22T16:49:02;8.00;;;1.83;;
73100;SDS011;61288;53.446;-2.266;2022-10-22T16:51:28;8.15;;;1.80;;
73100;SDS011;61288;53.446;-2.266;2022-10-22T16:53:55;10.70;;;2.30;;
73100;SDS011;61288;53.446;-2.266;2022-10-22T16:56:21;9.32;;;2.22;;
73100;SDS011;61288;53.446;-2.266;2022-10-22T16:58:52;10.98;;;2.05;;
73100;SDS011;61288;53.446;-2.266;2022-10-22T17:01:21;10.73;;;1.98;;